sensor_id;sensor_type;location;lat;lon;timestamp;temperature;humidity
16198;DHT22;8206;51.440;6.914;2024-02-14T00:02:25;8.10;99.90
16198;DHT22;8206;51.440;6.914;2024-02-14T00:04:52;8.10;99.90
16198;DHT22;8206;51.440;6.914;2024-02-14T00:07:21;8.00;99.90
16198;DHT22;8206;51.440;6.914;2024-02-14T00:09:47;8.00;99.90
16198;DHT22;8206;51.440;6.914;2024-02-14T00:12:14;8.00;99.90
16198;DHT22;8206;51.440;6.914;2024-02-14T00:14:41;8.00;99.90
16198;DHT22;8206;51.440;6.914;2024-02-14T00:17:08;8.00;99.90
16198;DHT22;8206;51.440;6.914;2024-02-14T00:19:36;7.90;99.90
16198;DHT22;8206;51.440;6.914;2024-02-14T00:22:02;7.90;99.90
16198;DHT22;8206;51.440;6.914;2024-02-14T00:24:30;7.80;99.90
16198;DHT22;8206;51.440;6.914;2024-02-14T00:26:57;7.70;99.90
16198;DHT22;8206;51.440;6.914;2024-02-14T00:29:25;7.70;99.90
16198;DHT22;8206;51.440;6.914;2024-02-14T00:31:52;7.70;99.90
16198;DHT22;8206;51.440;6.914;2024-02-14T00:34:19;7.70;99.90
16198;DHT22;8206;51.440;6.914;2024-02-14T00:36:46;7.60;99.90
16198;DHT22;8206;51.440;6.914;2024-02-14T00:39:13;7.70;99.90
16198;DHT22;8206;51.440;6.914;2024-02-14T00:41:41;7.60;99.90
16198;DHT22;8206;51.440;6.914;2024-02-14T00:44:07;7.60;99.90
16198;DHT22;8206;51.440;6.914;2024-02-14T00:46:34;7.60;99.90
16198;DHT22;8206;51.440;6.914;2024-02-14T00:49:01;7.50;99.90
16198;DHT22;8206;51.440;6.914;2024-02-14T00:51:27;7.60;99.90
16198;DHT22;8206;51.440;6.914;2024-02-14T00:53:54;7.60;99.90
16198;DHT22;8206;51.440;6.914;2024-02-14T00:56:21;7.60;99.90
16198;DHT22;8206;51.440;6.914;2024-02-14T00:58:50;7.50;99.90
16198;DHT22;8206;51.440;6.914;2024-02-14T01:01:17;7.50;99.90
16198;DHT22;8206;51.440;6.914;2024-02-14T01:03:43;7.50;99.90
16198;DHT22;8206;51.440;6.914;2024-02-14T01:06:10;7.50;99.90
16198;DHT22;8206;51.440;6.914;2024-02-14T01:08:37;7.50;99.90
16198;DHT22;8206;51.440;6.914;2024-02-14T01:11:03;7.40;99.90
16198;DHT22;8206;51.440;6.914;2024-02-14T01:13:30;7.40;99.90
16198;DHT22;8206;51.440;6.914;2024-02-14T01:15:58;7.40;99.90
16198;DHT22;8206;51.440;6.914;2024-02-14T01:18:25;7.40;99.90
16198;DHT22;8206;51.440;6.914;2024-02-14T01:20:51;7.40;99.90
16198;DHT22;8206;51.440;6.914;2024-02-14T01:23:19;7.40;99.90
16198;DHT22;8206;51.440;6.914;2024-02-14T01:25:46;7.40;99.90
16198;DHT22;8206;51.440;6.914;2024-02-14T01:28:12;7.50;99.90
16198;DHT22;8206;51.440;6.914;2024-02-14T01:30:40;7.40;99.90
16198;DHT22;8206;51.440;6.914;2024-02-14T01:33:08;7.50;99.90
16198;DHT22;8206;51.440;6.914;2024-02-14T01:35:34;7.50;99.90
16198;DHT22;8206;51.440;6.914;2024-02-14T01:38:01;7.50;99.90
16198;DHT22;8206;51.440;6.914;2024-02-14T01:40:28;7.50;99.90
16198;DHT22;8206;51.440;6.914;2024-02-14T01:42:55;7.50;99.90
16198;DHT22;8206;51.440;6.914;2024-02-14T01:45:21;7.50;99.90
16198;DHT22;8206;51.440;6.914;2024-02-14T01:47:49;7.50;99.90
16198;DHT22;8206;51.440;6.914;2024-02-14T01:50:17;7.60;99.90
16198;DHT22;8206;51.440;6.914;2024-02-14T01:52:51;7.60;99.90
16198;DHT22;8206;51.440;6.914;2024-02-14T01:55:18;7.60;99.90
16198;DHT22;8206;51.440;6.914;2024-02-14T01:57:44;7.60;99.90
16198;DHT22;8206;51.440;6.914;2024-02-14T02:00:12;7.70;99.90
16198;DHT22;8206;51.440;6.914;2024-02-14T02:02:40;7.70;99.90
16198;DHT22;8206;51.440;6.914;2024-02-14T02:05:07;7.70;99.90
16198;DHT22;8206;51.440;6.914;2024-02-14T02:07:35;7.80;99.90
16198;DHT22;8206;51.440;6.914;2024-02-14T02:10:05;7.80;99.90
16198;DHT22;8206;51.440;6.914;2024-02-14T02:12:32;7.90;99.90
16198;DHT22;8206;51.440;6.914;2024-02-14T02:14:59;7.90;99.90
16198;DHT22;8206;51.440;6.914;2024-02-14T02:17:25;7.90;99.90
16198;DHT22;8206;51.440;6.914;2024-02-14T02:19:53;7.90;99.90
16198;DHT22;8206;51.440;6.914;2024-02-14T02:22:20;8.00;99.90
16198;DHT22;8206;51.440;6.914;2024-02-14T02:24:48;8.00;99.90
16198;DHT22;8206;51.440;6.914;2024-02-14T02:27:16;8.00;99.90
16198;DHT22;8206;51.440;6.914;2024-02-14T02:29:43;8.00;99.90
16198;DHT22;8206;51.440;6.914;2024-02-14T02:32:09;8.00;99.90
16198;DHT22;8206;51.440;6.914;2024-02-14T02:34:37;8.00;99.90
16198;DHT22;8206;51.440;6.914;2024-02-14T02:37:04;8.00;99.90
16198;DHT22;8206;51.440;6.914;2024-02-14T02:39:32;8.00;99.90
16198;DHT22;8206;51.440;6.914;2024-02-14T02:42:00;8.10;99.90
16198;DHT22;8206;51.440;6.914;2024-02-14T02:44:27;8.10;99.90
16198;DHT22;8206;51.440;6.914;2024-02-14T02:46:54;8.10;99.90
16198;DHT22;8206;51.440;6.914;2024-02-14T02:49:21;8.10;99.90
16198;DHT22;8206;51.440;6.914;2024-02-14T02:51:47;8.10;99.90
16198;DHT22;8206;51.440;6.914;2024-02-14T02:54:14;8.20;99.90
16198;DHT22;8206;51.440;6.914;2024-02-14T02:56:41;8.10;99.90
16198;DHT22;8206;51.440;6.914;2024-02-14T02:59:09;8.20;99.90
16198;DHT22;8206;51.440;6.914;2024-02-14T03:01:36;8.20;99.90
16198;DHT22;8206;51.440;6.914;2024-02-14T03:04:03;8.20;99.90
16198;DHT22;8206;51.440;6.914;2024-02-14T03:06:30;8.20;99.90
16198;DHT22;8206;51.440;6.914;2024-02-14T03:08:57;8.20;99.90
16198;DHT22;8206;51.440;6.914;2024-02-14T03:11:23;8.20;99.90
16198;DHT22;8206;51.440;6.914;2024-02-14T03:13:51;8.20;99.90
16198;DHT22;8206;51.440;6.914;2024-02-14T03:16:19;8.30;99.90
16198;DHT22;8206;51.440;6.914;2024-02-14T03:18:46;8.30;99.90
16198;DHT22;8206;51.440;6.914;2024-02-14T03:21:12;8.30;99.90
16198;DHT22;8206;51.440;6.914;2024-02-14T03:23:39;8.30;99.90
16198;DHT22;8206;51.440;6.914;2024-02-14T03:26:06;8.30;99.90
16198;DHT22;8206;51.440;6.914;2024-02-14T03:28:34;8.30;99.90
16198;DHT22;8206;51.440;6.914;2024-02-14T03:31:01;8.40;99.90
16198;DHT22;8206;51.440;6.914;2024-02-14T03:33:29;8.40;99.90
16198;DHT22;8206;51.440;6.914;2024-02-14T03:35:56;8.40;99.90
16198;DHT22;8206;51.440;6.914;2024-02-14T03:38:26;8.40;99.90
16198;DHT22;8206;51.440;6.914;2024-02-14T03:40:52;8.40;99.90
16198;DHT22;8206;51.440;6.914;2024-02-14T03:43:19;8.50;99.90
16198;DHT22;8206;51.440;6.914;2024-02-14T03:45:47;8.50;99.90
16198;DHT22;8206;51.440;6.914;2024-02-14T03:48:14;8.50;99.90
16198;DHT22;8206;51.440;6.914;2024-02-14T03:50:42;8.50;99.90
16198;DHT22;8206;51.440;6.914;2024-02-14T03:53:09;8.60;99.90
16198;DHT22;8206;51.440;6.914;2024-02-14T03:55:36;8.60;99.90
16198;DHT22;8206;51.440;6.914;2024-02-14T03:58:03;8.60;99.90
16198;DHT22;8206;51.440;6.914;2024-02-14T04:00:31;8.70;99.90
16198;DHT22;8206;51.440;6.914;2024-02-14T04:02:59;8.70;99.90
16198;DHT22;8206;51.440;6.914;2024-02-14T04:05:25;8.70;99.90
16198;DHT22;8206;51.440;6.914;2024-02-14T04:07:54;8.80;99.90
16198;DHT22;8206;51.440;6.914;2024-02-14T04:10:21;8.70;99.90
16198;DHT22;8206;51.440;6.914;2024-02-14T04:12:48;8.80;99.90
16198;DHT22;8206;51.440;6.914;2024-02-14T04:15:14;8.80;99.90
16198;DHT22;8206;51.440;6.914;2024-02-14T04:17:41;8.80;99.90
16198;DHT22;8206;51.440;6.914;2024-02-14T04:20:08;8.80;99.90
16198;DHT22;8206;51.440;6.914;2024-02-14T04:22:35;8.90;99.90
16198;DHT22;8206;51.440;6.914;2024-02-14T04:25:04;8.90;99.90
16198;DHT22;8206;51.440;6.914;2024-02-14T04:27:31;9.00;99.90
16198;DHT22;8206;51.440;6.914;2024-02-14T04:29:57;8.90;99.90
16198;DHT22;8206;51.440;6.914;2024-02-14T04:32:24;9.00;99.90
16198;DHT22;8206;51.440;6.914;2024-02-14T04:34:50;9.00;99.90
16198;DHT22;8206;51.440;6.914;2024-02-14T04:37:17;9.00;99.90
16198;DHT22;8206;51.440;6.914;2024-02-14T04:39:45;9.10;99.90
16198;DHT22;8206;51.440;6.914;2024-02-14T04:42:13;9.10;99.90
16198;DHT22;8206;51.440;6.914;2024-02-14T04:44:40;9.10;99.90
16198;DHT22;8206;51.440;6.914;2024-02-14T04:47:06;9.20;99.90
16198;DHT22;8206;51.440;6.914;2024-02-14T04:49:35;9.20;99.90
16198;DHT22;8206;51.440;6.914;2024-02-14T04:52:02;9.10;99.90
16198;DHT22;8206;51.440;6.914;2024-02-14T04:54:29;9.20;99.90
16198;DHT22;8206;51.440;6.914;2024-02-14T04:56:56;9.20;99.90
16198;DHT22;8206;51.440;6.914;2024-02-14T04:59:24;9.20;99.90
16198;DHT22;8206;51.440;6.914;2024-02-14T05:01:50;9.20;99.90
16198;DHT22;8206;51.440;6.914;2024-02-14T05:04:19;9.20;99.90
16198;DHT22;8206;51.440;6.914;2024-02-14T05:06:46;9.20;99.90
16198;DHT22;8206;51.440;6.914;2024-02-14T05:09:12;9.20;99.90
16198;DHT22;8206;51.440;6.914;2024-02-14T05:11:40;9.30;99.90
16198;DHT22;8206;51.440;6.914;2024-02-14T05:14:07;9.30;99.90
16198;DHT22;8206;51.440;6.914;2024-02-14T05:16:35;9.20;99.90
16198;DHT22;8206;51.440;6.914;2024-02-14T05:19:02;9.20;99.90
16198;DHT22;8206;51.440;6.914;2024-02-14T05:21:28;9.30;99.90
16198;DHT22;8206;51.440;6.914;2024-02-14T05:23:55;9.30;99.90
16198;DHT22;8206;51.440;6.914;2024-02-14T05:26:22;9.30;99.90
16198;DHT22;8206;51.440;6.914;2024-02-14T05:28:48;9.30;99.90
16198;DHT22;8206;51.440;6.914;2024-02-14T05:31:15;9.30;99.90
16198;DHT22;8206;51.440;6.914;2024-02-14T05:33:44;9.30;99.90
16198;DHT22;8206;51.440;6.914;2024-02-14T05:36:10;9.30;99.90
16198;DHT22;8206;51.440;6.914;2024-02-14T05:38:37;9.30;99.90
16198;DHT22;8206;51.440;6.914;2024-02-14T05:41:04;9.30;99.90
16198;DHT22;8206;51.440;6.914;2024-02-14T05:43:33;9.30;99.90
16198;DHT22;8206;51.440;6.914;2024-02-14T05:45:59;9.30;99.90
16198;DHT22;8206;51.440;6.914;2024-02-14T05:48:26;9.30;99.90
16198;DHT22;8206;51.440;6.914;2024-02-14T05:50:54;9.30;99.90
16198;DHT22;8206;51.440;6.914;2024-02-14T05:53:21;9.30;99.90
16198;DHT22;8206;51.440;6.914;2024-02-14T05:55:47;9.20;99.90
16198;DHT22;8206;51.440;6.914;2024-02-14T05:58:14;9.20;99.90
16198;DHT22;8206;51.440;6.914;2024-02-14T06:00:41;9.20;99.90
16198;DHT22;8206;51.440;6.914;2024-02-14T06:03:07;9.30;99.90
16198;DHT22;8206;51.440;6.914;2024-02-14T06:05:34;9.30;99.90
16198;DHT22;8206;51.440;6.914;2024-02-14T06:08:03;9.30;99.90
16198;DHT22;8206;51.440;6.914;2024-02-14T06:10:29;9.20;99.90
16198;DHT22;8206;51.440;6.914;2024-02-14T06:12:56;9.20;99.90
16198;DHT22;8206;51.440;6.914;2024-02-14T06:15:23;9.30;99.90
16198;DHT22;8206;51.440;6.914;2024-02-14T06:17:49;9.30;99.90
16198;DHT22;8206;51.440;6.914;2024-02-14T06:20:16;9.30;99.90
16198;DHT22;8206;51.440;6.914;2024-02-14T06:22:43;9.30;99.90
16198;DHT22;8206;51.440;6.914;2024-02-14T06:25:11;9.30;99.90
16198;DHT22;8206;51.440;6.914;2024-02-14T06:27:38;9.30;99.90
16198;DHT22;8206;51.440;6.914;2024-02-14T06:30:06;9.40;99.90
16198;DHT22;8206;51.440;6.914;2024-02-14T06:32:32;9.30;99.90
16198;DHT22;8206;51.440;6.914;2024-02-14T06:34:59;9.30;99.90
16198;DHT22;8206;51.440;6.914;2024-02-14T06:37:26;9.20;99.90
16198;DHT22;8206;51.440;6.914;2024-02-14T06:39:52;9.20;99.90
16198;DHT22;8206;51.440;6.914;2024-02-14T06:42:20;9.20;99.90
16198;DHT22;8206;51.440;6.914;2024-02-14T06:44:47;9.30;99.90
16198;DHT22;8206;51.440;6.914;2024-02-14T06:47:15;9.30;99.90
16198;DHT22;8206;51.440;6.914;2024-02-14T06:49:41;9.30;99.90
16198;DHT22;8206;51.440;6.914;2024-02-14T06:52:08;9.30;99.90
16198;DHT22;8206;51.440;6.914;2024-02-14T06:54:35;9.40;99.90
16198;DHT22;8206;51.440;6.914;2024-02-14T06:57:01;9.40;99.90
16198;DHT22;8206;51.440;6.914;2024-02-14T06:59:29;9.30;99.90
16198;DHT22;8206;51.440;6.914;2024-02-14T07:01:57;9.30;99.90
16198;DHT22;8206;51.440;6.914;2024-02-14T07:04:24;9.40;99.90
16198;DHT22;8206;51.440;6.914;2024-02-14T07:06:52;9.40;99.90
16198;DHT22;8206;51.440;6.914;2024-02-14T07:09:19;9.40;99.90
16198;DHT22;8206;51.440;6.914;2024-02-14T07:11:46;9.40;99.90
16198;DHT22;8206;51.440;6.914;2024-02-14T07:14:12;9.40;99.90
16198;DHT22;8206;51.440;6.914;2024-02-14T07:16:40;9.40;99.90
16198;DHT22;8206;51.440;6.914;2024-02-14T07:19:07;9.50;99.90
16198;DHT22;8206;51.440;6.914;2024-02-14T07:21:34;9.40;99.90
16198;DHT22;8206;51.440;6.914;2024-02-14T07:24:03;9.40;99.90
16198;DHT22;8206;51.440;6.914;2024-02-14T07:26:30;9.50;99.90
16198;DHT22;8206;51.440;6.914;2024-02-14T07:28:57;9.50;99.90
16198;DHT22;8206;51.440;6.914;2024-02-14T07:31:24;9.50;99.90
16198;DHT22;8206;51.440;6.914;2024-02-14T07:33:55;9.60;99.90
16198;DHT22;8206;51.440;6.914;2024-02-14T07:36:22;9.50;99.90
16198;DHT22;8206;51.440;6.914;2024-02-14T07:38:49;9.60;99.90
16198;DHT22;8206;51.440;6.914;2024-02-14T07:41:15;9.50;99.90
16198;DHT22;8206;51.440;6.914;2024-02-14T07:43:42;9.50;99.90
16198;DHT22;8206;51.440;6.914;2024-02-14T07:46:09;9.60;99.90
16198;DHT22;8206;51.440;6.914;2024-02-14T07:48:37;9.50;99.90
16198;DHT22;8206;51.440;6.914;2024-02-14T07:51:08;9.50;99.90
16198;DHT22;8206;51.440;6.914;2024-02-14T07:53:35;9.60;99.90
16198;DHT22;8206;51.440;6.914;2024-02-14T07:56:02;9.60;99.90
16198;DHT22;8206;51.440;6.914;2024-02-14T07:58:28;9.60;99.90
16198;DHT22;8206;51.440;6.914;2024-02-14T08:00:55;9.70;99.90
16198;DHT22;8206;51.440;6.914;2024-02-14T08:03:22;9.70;99.90
16198;DHT22;8206;51.440;6.914;2024-02-14T08:05:50;9.70;99.90
16198;DHT22;8206;51.440;6.914;2024-02-14T08:08:18;9.80;99.90
16198;DHT22;8206;51.440;6.914;2024-02-14T08:10:44;9.80;99.90
16198;DHT22;8206;51.440;6.914;2024-02-14T08:13:11;9.90;99.90
16198;DHT22;8206;51.440;6.914;2024-02-14T08:15:41;10.00;99.90
16198;DHT22;8206;51.440;6.914;2024-02-14T08:18:07;10.00;99.90
16198;DHT22;8206;51.440;6.914;2024-02-14T08:20:34;10.10;99.90
16198;DHT22;8206;51.440;6.914;2024-02-14T08:23:01;10.10;99.90
16198;DHT22;8206;51.440;6.914;2024-02-14T08:25:29;10.10;99.90
16198;DHT22;8206;51.440;6.914;2024-02-14T08:27:56;10.20;99.90
16198;DHT22;8206;51.440;6.914;2024-02-14T08:30:22;10.20;99.90
16198;DHT22;8206;51.440;6.914;2024-02-14T08:32:50;10.20;99.90
16198;DHT22;8206;51.440;6.914;2024-02-14T08:35:16;10.30;99.90
16198;DHT22;8206;51.440;6.914;2024-02-14T08:37:43;10.30;99.90
16198;DHT22;8206;51.440;6.914;2024-02-14T08:40:10;10.40;99.90
16198;DHT22;8206;51.440;6.914;2024-02-14T08:42:39;10.40;99.90
16198;DHT22;8206;51.440;6.914;2024-02-14T08:45:06;10.40;99.90
16198;DHT22;8206;51.440;6.914;2024-02-14T08:47:33;10.40;99.90
16198;DHT22;8206;51.440;6.914;2024-02-14T08:50:00;10.40;99.90
16198;DHT22;8206;51.440;6.914;2024-02-14T08:52:28;10.40;99.90
16198;DHT22;8206;51.440;6.914;2024-02-14T08:54:55;10.40;99.90
16198;DHT22;8206;51.440;6.914;2024-02-14T08:57:21;10.40;99.90
16198;DHT22;8206;51.440;6.914;2024-02-14T08:59:50;10.50;99.90
16198;DHT22;8206;51.440;6.914;2024-02-14T09:02:17;10.40;99.90
16198;DHT22;8206;51.440;6.914;2024-02-14T09:04:43;10.50;99.90
16198;DHT22;8206;51.440;6.914;2024-02-14T09:07:10;10.50;99.90
16198;DHT22;8206;51.440;6.914;2024-02-14T09:09:37;10.50;99.90
16198;DHT22;8206;51.440;6.914;2024-02-14T09:12:04;10.60;99.90
16198;DHT22;8206;51.440;6.914;2024-02-14T09:14:31;10.60;99.90
16198;DHT22;8206;51.440;6.914;2024-02-14T09:16:59;10.60;99.90
16198;DHT22;8206;51.440;6.914;2024-02-14T09:19:26;10.60;99.90
16198;DHT22;8206;51.440;6.914;2024-02-14T09:21:53;10.50;99.90
16198;DHT22;8206;51.440;6.914;2024-02-14T09:24:19;10.60;99.90
16198;DHT22;8206;51.440;6.914;2024-02-14T09:26:46;10.50;99.90
16198;DHT22;8206;51.440;6.914;2024-02-14T09:29:13;10.40;99.90
16198;DHT22;8206;51.440;6.914;2024-02-14T09:31:40;10.40;99.90
16198;DHT22;8206;51.440;6.914;2024-02-14T09:34:09;10.40;99.90
16198;DHT22;8206;51.440;6.914;2024-02-14T09:36:37;10.50;99.90
16198;DHT22;8206;51.440;6.914;2024-02-14T09:39:04;10.50;99.90
16198;DHT22;8206;51.440;6.914;2024-02-14T09:41:37;10.60;99.90
16198;DHT22;8206;51.440;6.914;2024-02-14T09:44:05;10.60;99.90
16198;DHT22;8206;51.440;6.914;2024-02-14T09:46:35;10.60;99.90
16198;DHT22;8206;51.440;6.914;2024-02-14T09:49:03;10.70;99.90
16198;DHT22;8206;51.440;6.914;2024-02-14T09:51:31;10.80;99.90
16198;DHT22;8206;51.440;6.914;2024-02-14T09:54:00;10.80;99.90
16198;DHT22;8206;51.440;6.914;2024-02-14T09:56:28;11.10;99.90
16198;DHT22;8206;51.440;6.914;2024-02-14T09:58:55;11.20;99.90
16198;DHT22;8206;51.440;6.914;2024-02-14T10:01:22;11.20;99.90
16198;DHT22;8206;51.440;6.914;2024-02-14T10:03:49;11.30;99.90
16198;DHT22;8206;51.440;6.914;2024-02-14T10:06:17;11.40;99.90
16198;DHT22;8206;51.440;6.914;2024-02-14T10:08:46;11.40;99.90
16198;DHT22;8206;51.440;6.914;2024-02-14T10:11:14;11.40;99.90
16198;DHT22;8206;51.440;6.914;2024-02-14T10:13:44;11.50;99.90
16198;DHT22;8206;51.440;6.914;2024-02-14T10:16:11;11.50;99.90
16198;DHT22;8206;51.440;6.914;2024-02-14T10:18:38;11.50;99.90
16198;DHT22;8206;51.440;6.914;2024-02-14T10:21:05;11.50;99.90
16198;DHT22;8206;51.440;6.914;2024-02-14T10:23:32;11.60;99.90
16198;DHT22;8206;51.440;6.914;2024-02-14T10:26:00;11.60;99.90
16198;DHT22;8206;51.440;6.914;2024-02-14T10:28:27;11.60;99.90
16198;DHT22;8206;51.440;6.914;2024-02-14T10:30:55;11.60;99.90
16198;DHT22;8206;51.440;6.914;2024-02-14T10:33:22;11.60;99.90
16198;DHT22;8206;51.440;6.914;2024-02-14T10:35:50;11.50;99.90
16198;DHT22;8206;51.440;6.914;2024-02-14T10:38:19;11.50;99.90
16198;DHT22;8206;51.440;6.914;2024-02-14T10:40:47;11.50;99.90
16198;DHT22;8206;51.440;6.914;2024-02-14T10:43:15;11.50;99.90
16198;DHT22;8206;51.440;6.914;2024-02-14T10:45:42;11.60;99.90
16198;DHT22;8206;51.440;6.914;2024-02-14T10:48:11;11.60;99.90
16198;DHT22;8206;51.440;6.914;2024-02-14T10:50:40;11.50;99.90
16198;DHT22;8206;51.440;6.914;2024-02-14T10:53:13;11.50;99.90
16198;DHT22;8206;51.440;6.914;2024-02-14T10:55:41;11.60;99.90
16198;DHT22;8206;51.440;6.914;2024-02-14T10:58:12;11.60;99.90
16198;DHT22;8206;51.440;6.914;2024-02-14T11:00:41;11.60;99.90
16198;DHT22;8206;51.440;6.914;2024-02-14T11:03:08;11.60;99.90
16198;DHT22;8206;51.440;6.914;2024-02-14T11:05:42;11.50;99.90
16198;DHT22;8206;51.440;6.914;2024-02-14T11:08:13;11.60;99.90
16198;DHT22;8206;51.440;6.914;2024-02-14T11:10:40;11.70;99.90
16198;DHT22;8206;51.440;6.914;2024-02-14T11:13:10;11.80;99.90
16198;DHT22;8206;51.440;6.914;2024-02-14T11:15:44;11.90;99.90
16198;DHT22;8206;51.440;6.914;2024-02-14T11:18:11;12.00;99.90
16198;DHT22;8206;51.440;6.914;2024-02-14T11:20:37;12.00;99.90
16198;DHT22;8206;51.440;6.914;2024-02-14T11:23:07;12.00;99.90
16198;DHT22;8206;51.440;6.914;2024-02-14T11:25:36;12.10;99.90
16198;DHT22;8206;51.440;6.914;2024-02-14T11:28:12;12.20;99.90
16198;DHT22;8206;51.440;6.914;2024-02-14T11:30:42;12.20;99.90
16198;DHT22;8206;51.440;6.914;2024-02-14T11:33:12;12.20;99.90
16198;DHT22;8206;51.440;6.914;2024-02-14T11:35:40;12.30;99.90
16198;DHT22;8206;51.440;6.914;2024-02-14T11:38:06;12.50;99.90
16198;DHT22;8206;51.440;6.914;2024-02-14T11:40:33;12.60;99.90
16198;DHT22;8206;51.440;6.914;2024-02-14T11:43:00;12.60;99.90
16198;DHT22;8206;51.440;6.914;2024-02-14T11:45:27;12.50;99.90
16198;DHT22;8206;51.440;6.914;2024-02-14T11:47:55;12.50;99.90
16198;DHT22;8206;51.440;6.914;2024-02-14T11:50:22;12.40;99.90
16198;DHT22;8206;51.440;6.914;2024-02-14T11:52:49;12.30;99.90
16198;DHT22;8206;51.440;6.914;2024-02-14T11:55:17;12.30;99.90
16198;DHT22;8206;51.440;6.914;2024-02-14T11:57:44;12.30;99.90
16198;DHT22;8206;51.440;6.914;2024-02-14T12:00:14;12.50;99.90
16198;DHT22;8206;51.440;6.914;2024-02-14T12:02:41;12.60;99.90
16198;DHT22;8206;51.440;6.914;2024-02-14T12:05:09;12.70;99.90
16198;DHT22;8206;51.440;6.914;2024-02-14T12:07:36;12.80;99.90
16198;DHT22;8206;51.440;6.914;2024-02-14T12:10:03;12.90;99.90
16198;DHT22;8206;51.440;6.914;2024-02-14T12:12:30;12.90;99.90
16198;DHT22;8206;51.440;6.914;2024-02-14T12:14:57;12.80;99.90
16198;DHT22;8206;51.440;6.914;2024-02-14T12:17:24;12.80;99.90
16198;DHT22;8206;51.440;6.914;2024-02-14T12:19:51;12.80;99.90
16198;DHT22;8206;51.440;6.914;2024-02-14T12:22:20;12.80;99.90
16198;DHT22;8206;51.440;6.914;2024-02-14T12:24:46;12.70;99.90
16198;DHT22;8206;51.440;6.914;2024-02-14T12:27:17;12.60;99.90
16198;DHT22;8206;51.440;6.914;2024-02-14T12:29:45;12.50;99.90
16198;DHT22;8206;51.440;6.914;2024-02-14T12:32:16;12.40;99.90
16198;DHT22;8206;51.440;6.914;2024-02-14T12:34:44;12.40;99.90
16198;DHT22;8206;51.440;6.914;2024-02-14T12:37:10;12.40;99.90
16198;DHT22;8206;51.440;6.914;2024-02-14T12:39:38;12.50;99.90
16198;DHT22;8206;51.440;6.914;2024-02-14T12:42:05;12.50;99.90
16198;DHT22;8206;51.440;6.914;2024-02-14T12:44:32;12.50;99.90
16198;DHT22;8206;51.440;6.914;2024-02-14T12:46:59;12.40;99.90
16198;DHT22;8206;51.440;6.914;2024-02-14T12:49:25;12.30;99.90
16198;DHT22;8206;51.440;6.914;2024-02-14T12:51:52;12.30;99.90
16198;DHT22;8206;51.440;6.914;2024-02-14T12:54:19;12.30;99.90
16198;DHT22;8206;51.440;6.914;2024-02-14T12:56:47;12.30;99.90
16198;DHT22;8206;51.440;6.914;2024-02-14T12:59:17;12.30;99.90
16198;DHT22;8206;51.440;6.914;2024-02-14T13:01:44;12.40;99.90
16198;DHT22;8206;51.440;6.914;2024-02-14T13:04:12;12.30;99.90
16198;DHT22;8206;51.440;6.914;2024-02-14T13:06:39;12.30;99.90
16198;DHT22;8206;51.440;6.914;2024-02-14T13:09:06;12.30;99.90
16198;DHT22;8206;51.440;6.914;2024-02-14T13:11:33;12.30;99.90
16198;DHT22;8206;51.440;6.914;2024-02-14T13:14:02;12.20;99.90
16198;DHT22;8206;51.440;6.914;2024-02-14T13:16:29;12.20;99.90
16198;DHT22;8206;51.440;6.914;2024-02-14T13:18:56;12.30;99.90
16198;DHT22;8206;51.440;6.914;2024-02-14T13:21:23;12.30;99.90
16198;DHT22;8206;51.440;6.914;2024-02-14T13:23:50;12.20;99.90
16198;DHT22;8206;51.440;6.914;2024-02-14T13:26:17;12.20;99.90
16198;DHT22;8206;51.440;6.914;2024-02-14T13:28:43;12.10;99.90
16198;DHT22;8206;51.440;6.914;2024-02-14T13:31:11;12.20;99.90
16198;DHT22;8206;51.440;6.914;2024-02-14T13:33:38;12.20;99.90
16198;DHT22;8206;51.440;6.914;2024-02-14T13:36:05;12.20;99.90
16198;DHT22;8206;51.440;6.914;2024-02-14T13:38:32;12.10;99.90
16198;DHT22;8206;51.440;6.914;2024-02-14T13:40:58;12.10;99.90
16198;DHT22;8206;51.440;6.914;2024-02-14T13:43:26;12.10;99.90
16198;DHT22;8206;51.440;6.914;2024-02-14T13:45:52;12.10;99.90
16198;DHT22;8206;51.440;6.914;2024-02-14T13:48:21;12.10;99.90
16198;DHT22;8206;51.440;6.914;2024-02-14T13:50:47;12.10;99.90
16198;DHT22;8206;51.440;6.914;2024-02-14T13:53:14;12.10;99.90
16198;DHT22;8206;51.440;6.914;2024-02-14T13:55:42;12.00;99.90
16198;DHT22;8206;51.440;6.914;2024-02-14T13:58:09;12.00;99.90
16198;DHT22;8206;51.440;6.914;2024-02-14T14:00:40;11.90;99.90
16198;DHT22;8206;51.440;6.914;2024-02-14T14:03:08;11.90;99.90
16198;DHT22;8206;51.440;6.914;2024-02-14T14:05:36;12.00;99.90
16198;DHT22;8206;51.440;6.914;2024-02-14T14:08:02;12.00;99.90
16198;DHT22;8206;51.440;6.914;2024-02-14T14:10:29;12.10;99.90
16198;DHT22;8206;51.440;6.914;2024-02-14T14:12:56;12.00;99.90
16198;DHT22;8206;51.440;6.914;2024-02-14T14:15:23;12.00;99.90
16198;DHT22;8206;51.440;6.914;2024-02-14T14:17:49;12.00;99.90
16198;DHT22;8206;51.440;6.914;2024-02-14T14:20:16;12.00;99.90
16198;DHT22;8206;51.440;6.914;2024-02-14T14:22:45;12.10;99.90
16198;DHT22;8206;51.440;6.914;2024-02-14T14:25:11;12.10;99.90
16198;DHT22;8206;51.440;6.914;2024-02-14T14:27:38;12.10;99.90
16198;DHT22;8206;51.440;6.914;2024-02-14T14:30:06;12.10;99.90
16198;DHT22;8206;51.440;6.914;2024-02-14T14:32:33;12.10;99.90
16198;DHT22;8206;51.440;6.914;2024-02-14T14:35:00;12.10;99.90
16198;DHT22;8206;51.440;6.914;2024-02-14T14:37:26;12.10;99.90
16198;DHT22;8206;51.440;6.914;2024-02-14T14:39:54;12.00;99.90
16198;DHT22;8206;51.440;6.914;2024-02-14T14:42:21;11.90;99.90
16198;DHT22;8206;51.440;6.914;2024-02-14T14:44:48;11.90;99.90
16198;DHT22;8206;51.440;6.914;2024-02-14T14:47:15;11.90;99.90
16198;DHT22;8206;51.440;6.914;2024-02-14T14:49:41;11.80;99.90
16198;DHT22;8206;51.440;6.914;2024-02-14T14:52:08;11.70;99.90
16198;DHT22;8206;51.440;6.914;2024-02-14T14:54:35;11.70;99.90
16198;DHT22;8206;51.440;6.914;2024-02-14T14:57:03;11.70;99.90
16198;DHT22;8206;51.440;6.914;2024-02-14T14:59:34;11.70;99.90
16198;DHT22;8206;51.440;6.914;2024-02-14T15:02:01;11.70;99.90
16198;DHT22;8206;51.440;6.914;2024-02-14T15:04:28;11.70;99.90
16198;DHT22;8206;51.440;6.914;2024-02-14T15:06:55;11.70;99.90
16198;DHT22;8206;51.440;6.914;2024-02-14T15:09:21;11.70;99.90
16198;DHT22;8206;51.440;6.914;2024-02-14T15:11:48;11.70;99.90
16198;DHT22;8206;51.440;6.914;2024-02-14T15:14:16;11.70;99.90
16198;DHT22;8206;51.440;6.914;2024-02-14T15:16:44;11.70;99.90
16198;DHT22;8206;51.440;6.914;2024-02-14T15:19:10;11.70;99.90
16198;DHT22;8206;51.440;6.914;2024-02-14T15:21:37;11.60;99.90
16198;DHT22;8206;51.440;6.914;2024-02-14T15:24:04;11.60;99.90
16198;DHT22;8206;51.440;6.914;2024-02-14T15:26:32;11.60;99.90
16198;DHT22;8206;51.440;6.914;2024-02-14T15:29:16;11.60;99.90
16198;DHT22;8206;51.440;6.914;2024-02-14T15:32:00;11.60;99.90
16198;DHT22;8206;51.440;6.914;2024-02-14T15:34:44;11.60;99.90
16198;DHT22;8206;51.440;6.914;2024-02-14T15:37:11;11.60;99.90
16198;DHT22;8206;51.440;6.914;2024-02-14T15:39:38;11.60;99.90
16198;DHT22;8206;51.440;6.914;2024-02-14T15:42:05;11.60;99.90
16198;DHT22;8206;51.440;6.914;2024-02-14T15:44:33;11.60;99.90
16198;DHT22;8206;51.440;6.914;2024-02-14T15:46:59;11.60;99.90
16198;DHT22;8206;51.440;6.914;2024-02-14T15:49:26;11.60;99.90
16198;DHT22;8206;51.440;6.914;2024-02-14T15:51:53;11.60;99.90
16198;DHT22;8206;51.440;6.914;2024-02-14T15:54:20;11.60;99.90
16198;DHT22;8206;51.440;6.914;2024-02-14T15:56:46;11.60;99.90